createdAt,value
2022-10-03T00:00:56.647Z,99.99
2022-10-03T00:01:56.738Z,99.99
2022-10-03T00:02:56.665Z,99.99
2022-10-03T00:03:56.625Z,99.99
2022-10-03T00:04:56.646Z,99.99
2022-10-03T00:05:56.615Z,99.99
2022-10-03T00:06:56.588Z,99.99
2022-10-03T00:07:56.606Z,99.99
2022-10-03T00:08:56.586Z,99.99
2022-10-03T00:09:56.567Z,99.99
2022-10-03T00:10:56.557Z,99.99
2022-10-03T00:11:56.557Z,99.99
2022-10-03T00:12:56.531Z,99.99
2022-10-03T00:13:56.535Z,99.99
2022-10-03T00:14:56.506Z,99.99
2022-10-03T00:15:56.594Z,99.99
2022-10-03T00:16:56.487Z,99.99
2022-10-03T00:17:56.498Z,99.99
2022-10-03T00:18:56.468Z,99.99
2022-10-03T00:19:56.486Z,99.99
2022-10-03T00:20:56.436Z,99.99
2022-10-03T00:21:56.450Z,99.99
2022-10-03T00:22:56.429Z,99.99
2022-10-03T00:23:56.429Z,99.99
2022-10-03T00:24:56.411Z,99.99
2022-10-03T00:25:56.410Z,99.99
2022-10-03T00:26:56.376Z,99.99
2022-10-03T00:27:56.415Z,99.99
2022-10-03T00:28:56.360Z,99.99
2022-10-03T00:29:56.382Z,99.99
2022-10-03T00:30:56.402Z,99.99
2022-10-03T00:31:56.386Z,99.99
2022-10-03T00:32:56.330Z,99.99
2022-10-03T00:33:56.301Z,99.99
2022-10-03T00:34:56.322Z,99.99
2022-10-03T00:35:56.330Z,99.99
2022-10-03T00:36:56.281Z,99.99
2022-10-03T00:37:56.281Z,99.99
2022-10-03T00:38:56.262Z,99.99
2022-10-03T00:39:56.250Z,99.99
2022-10-03T00:40:56.245Z,99.99
2022-10-03T00:41:56.231Z,99.99
2022-10-03T00:42:56.210Z,99.99
2022-10-03T00:43:56.202Z,99.99
2022-10-03T00:44:56.192Z,99.99
2022-10-03T00:45:56.205Z,99.99
2022-10-03T00:46:56.297Z,99.99
2022-10-03T00:47:56.164Z,99.99
2022-10-03T00:48:56.176Z,99.99
2022-10-03T00:49:56.156Z,99.99
2022-10-03T00:50:56.114Z,99.99
2022-10-03T00:51:56.144Z,99.99
2022-10-03T00:52:56.105Z,99.99
2022-10-03T00:53:56.135Z,99.99
2022-10-03T00:54:56.075Z,99.99
2022-10-03T00:55:56.110Z,99.99
2022-10-03T00:56:56.053Z,99.99
2022-10-03T00:57:56.083Z,99.99
2022-10-03T00:58:56.025Z,99.99
2022-10-03T00:59:56.066Z,99.99
2022-10-03T01:00:56.058Z,99.99
2022-10-03T01:01:56.027Z,99.99
2022-10-03T01:02:55.995Z,99.99
2022-10-03T01:03:55.996Z,99.99
2022-10-03T01:04:55.997Z,99.99
2022-10-03T01:05:55.974Z,99.99
2022-10-03T01:06:55.957Z,99.99
2022-10-03T01:07:55.958Z,99.99
2022-10-03T01:08:55.936Z,99.99
2022-10-03T01:09:55.927Z,99.99
2022-10-03T01:10:55.898Z,99.99
2022-10-03T01:11:55.914Z,99.99
2022-10-03T01:12:55.908Z,99.99
2022-10-03T01:13:55.902Z,99.99
2022-10-03T01:14:55.858Z,99.99
2022-10-03T01:15:55.916Z,99.99
2022-10-03T01:16:55.858Z,99.99
2022-10-03T01:17:55.851Z,99.99
2022-10-03T01:18:55.856Z,99.99
2022-10-03T01:19:55.839Z,99.99
2022-10-03T01:20:55.800Z,99.99
2022-10-03T01:21:55.799Z,99.99
2022-10-03T01:22:55.792Z,99.99
2022-10-03T01:23:55.797Z,99.99
2022-10-03T01:24:55.770Z,99.99
2022-10-03T01:25:55.769Z,99.99
2022-10-03T01:26:55.751Z,99.99
2022-10-03T01:27:55.770Z,99.99
2022-10-03T01:28:55.751Z,99.99
2022-10-03T01:29:55.738Z,99.99
2022-10-03T01:30:55.732Z,99.99
2022-10-03T01:31:55.704Z,99.99
2022-10-03T01:32:55.681Z,99.99
2022-10-03T01:33:55.663Z,99.99
2022-10-03T01:34:55.682Z,99.99
2022-10-03T01:35:55.682Z,99.99
2022-10-03T01:36:55.650Z,99.99
2022-10-03T01:37:55.643Z,99.99
2022-10-03T01:38:55.603Z,99.99
2022-10-03T01:39:55.615Z,99.99
2022-10-03T01:40:55.607Z,99.99
2022-10-03T01:41:55.616Z,99.99
2022-10-03T01:42:55.574Z,99.99
2022-10-03T01:43:55.583Z,99.99
2022-10-03T01:44:55.568Z,99.99
2022-10-03T01:45:55.553Z,99.99
2022-10-03T01:46:55.590Z,99.99
2022-10-03T01:47:55.522Z,99.99
2022-10-03T01:48:55.498Z,99.99
2022-10-03T01:49:55.549Z,99.99
2022-10-03T01:50:55.483Z,99.99
2022-10-03T01:51:55.477Z,99.99
2022-10-03T01:52:55.456Z,99.99
2022-10-03T01:53:55.456Z,99.99
2022-10-03T01:54:55.466Z,99.99
2022-10-03T01:55:55.467Z,99.99
2022-10-03T01:56:55.427Z,99.99
2022-10-03T01:57:55.415Z,99.99
2022-10-03T01:58:55.409Z,99.99
2022-10-03T01:59:55.426Z,99.99
2022-10-03T02:00:55.416Z,99.99
2022-10-03T02:01:55.416Z,99.99
2022-10-03T02:02:55.348Z,99.99
2022-10-03T02:03:55.350Z,99.99
2022-10-03T02:04:55.360Z,99.99
2022-10-03T02:05:55.349Z,99.99
2022-10-03T02:06:55.328Z,99.99
2022-10-03T02:07:55.328Z,99.99
2022-10-03T02:08:55.301Z,99.99
2022-10-03T02:09:55.318Z,99.99
2022-10-03T02:10:55.289Z,99.99
2022-10-03T02:11:55.304Z,99.99
2022-10-03T02:12:55.249Z,99.99
2022-10-03T02:13:55.241Z,99.99
2022-10-03T02:14:55.240Z,99.99
2022-10-03T02:15:55.289Z,99.99
2022-10-03T02:16:55.250Z,99.99
2022-10-03T02:17:55.208Z,99.99
2022-10-03T02:18:55.199Z,99.99
2022-10-03T02:19:55.219Z,99.99
2022-10-03T02:20:55.161Z,99.99
2022-10-03T02:21:55.154Z,99.99
2022-10-03T02:22:55.152Z,99.99
2022-10-03T02:23:55.154Z,99.99
2022-10-03T02:24:55.135Z,99.99
2022-10-03T02:25:55.142Z,99.99
2022-10-03T02:26:58.320Z,99.99
2022-10-03T02:27:55.152Z,99.99
2022-10-03T02:28:55.114Z,99.99
2022-10-03T02:29:55.113Z,99.99
2022-10-03T02:30:55.060Z,99.99
2022-10-03T02:31:55.101Z,99.99
2022-10-03T02:32:55.074Z,99.99
2022-10-03T02:33:55.046Z,99.99
2022-10-03T02:34:55.025Z,99.99
2022-10-03T02:35:55.018Z,99.99
2022-10-03T02:36:54.994Z,99.99
2022-10-03T02:37:55.034Z,99.99
2022-10-03T02:38:54.983Z,99.99
2022-10-03T02:39:54.975Z,99.99
2022-10-03T02:40:54.955Z,99.99
2022-10-03T02:41:54.952Z,99.99
2022-10-03T02:42:54.943Z,99.99
2022-10-03T02:43:54.936Z,99.99
2022-10-03T02:44:54.905Z,99.99
2022-10-03T02:45:54.990Z,99.99
2022-10-03T02:46:54.897Z,99.99
2022-10-03T02:48:08.400Z,99.99
2022-10-03T02:48:55.865Z,99.99
2022-10-03T02:49:54.867Z,99.99
2022-10-03T02:50:54.858Z,99.99
2022-10-03T02:51:54.857Z,99.99
2022-10-03T02:52:54.834Z,99.99
2022-10-03T02:53:54.817Z,99.99
2022-10-03T02:54:54.830Z,99.99
2022-10-03T02:55:54.798Z,99.99
2022-10-03T02:56:54.797Z,99.99
2022-10-03T02:57:54.799Z,99.99
2022-10-03T02:58:54.758Z,99.99
2022-10-03T02:59:54.759Z,99.99
2022-10-03T03:00:54.774Z,99.99
2022-10-03T03:01:54.779Z,99.99
2022-10-03T03:02:54.721Z,99.99
2022-10-03T03:03:54.729Z,99.99
2022-10-03T03:04:54.697Z,99.99
2022-10-03T03:05:54.767Z,99.99
2022-10-03T03:06:54.688Z,99.99
2022-10-03T03:07:54.670Z,99.99
2022-10-03T03:08:54.670Z,99.99
2022-10-03T03:09:54.684Z,99.99
2022-10-03T03:10:54.630Z,99.99
2022-10-03T03:11:54.629Z,99.99
2022-10-03T03:12:54.632Z,99.99
2022-10-03T03:13:54.640Z,99.99
2022-10-03T03:14:54.600Z,99.99
2022-10-03T03:15:54.724Z,99.99
2022-10-03T03:16:54.581Z,99.99
2022-10-03T03:17:54.572Z,99.99
2022-10-03T03:18:54.542Z,99.99
2022-10-03T03:19:54.552Z,99.99
2022-10-03T03:20:54.549Z,99.99
2022-10-03T03:21:54.553Z,99.99
2022-10-03T03:22:54.505Z,99.99
2022-10-03T03:23:54.493Z,99.99
2022-10-03T03:24:54.493Z,99.99
2022-10-03T03:25:54.487Z,99.99
2022-10-03T03:26:54.484Z,99.99
2022-10-03T03:27:54.498Z,99.99
2022-10-03T03:28:55.796Z,99.99
2022-10-03T03:29:54.449Z,99.99
2022-10-03T03:30:54.423Z,99.99
2022-10-03T03:31:54.743Z,99.99
2022-10-03T03:32:54.444Z,99.99
2022-10-03T03:33:54.399Z,99.99
2022-10-03T03:34:54.394Z,99.99
2022-10-03T03:35:54.389Z,99.99
2022-10-03T03:36:54.362Z,99.99
2022-10-03T03:37:54.389Z,99.99
2022-10-03T03:38:54.365Z,99.99
2022-10-03T03:39:54.335Z,99.99
2022-10-03T03:40:54.318Z,99.99
2022-10-03T03:41:54.317Z,99.99
2022-10-03T03:42:54.307Z,99.99
2022-10-03T03:43:54.307Z,99.99
2022-10-03T03:44:54.296Z,99.99
2022-10-03T03:45:54.344Z,99.99
2022-10-03T03:46:54.247Z,99.99
2022-10-03T03:47:54.248Z,99.99
2022-10-03T03:48:54.237Z,99.99
2022-10-03T03:49:54.240Z,99.99
2022-10-03T03:50:54.241Z,99.99
2022-10-03T03:51:54.207Z,99.99
2022-10-03T03:52:54.198Z,99.99
2022-10-03T03:53:54.202Z,99.99
2022-10-03T03:54:54.188Z,99.99
2022-10-03T03:55:54.170Z,99.99
2022-10-03T03:56:54.170Z,99.99
2022-10-03T03:57:54.160Z,99.99
2022-10-03T03:58:54.119Z,99.99
2022-10-03T03:59:54.140Z,99.99
2022-10-03T04:00:54.200Z,99.99
2022-10-03T04:01:54.208Z,99.99
2022-10-03T04:02:54.089Z,99.99
2022-10-03T04:03:54.090Z,99.99
2022-10-03T04:04:54.080Z,99.99
2022-10-03T04:05:54.066Z,99.99
2022-10-03T04:06:54.061Z,99.99
2022-10-03T04:07:54.031Z,99.99
2022-10-03T04:08:54.041Z,99.99
2022-10-03T04:09:54.032Z,99.99
2022-10-03T04:10:54.001Z,99.99
2022-10-03T04:11:53.995Z,99.99
2022-10-03T04:12:53.992Z,99.99
2022-10-03T04:13:53.972Z,99.99
2022-10-03T04:14:53.981Z,99.99
2022-10-03T04:15:53.984Z,99.99
2022-10-03T04:16:53.979Z,99.99
2022-10-03T04:17:53.935Z,99.99
2022-10-03T04:18:53.952Z,99.99
2022-10-03T04:19:53.904Z,99.99
2022-10-03T04:20:53.914Z,99.99
2022-10-03T04:21:53.904Z,99.99
2022-10-03T04:22:53.883Z,99.99
2022-10-03T04:23:53.876Z,99.99
2022-10-03T04:24:53.864Z,99.99
2022-10-03T04:25:53.834Z,99.99
2022-10-03T04:26:53.845Z,99.99
2022-10-03T04:27:53.851Z,99.99
2022-10-03T04:28:53.805Z,99.99
2022-10-03T04:29:56.749Z,99.99
2022-10-03T04:30:53.798Z,99.99
2022-10-03T04:31:53.809Z,99.99
2022-10-03T04:32:53.776Z,99.99
2022-10-03T04:33:53.756Z,99.99
2022-10-03T04:34:53.745Z,99.99
2022-10-03T04:35:53.736Z,99.99
2022-10-03T04:36:53.736Z,99.99
2022-10-03T04:37:53.746Z,99.99
2022-10-03T04:38:53.705Z,99.99
2022-10-03T04:39:53.708Z,99.99
2022-10-03T04:40:53.697Z,99.99
2022-10-03T04:41:53.678Z,99.99
2022-10-03T04:42:53.678Z,99.99
2022-10-03T04:43:53.668Z,99.99
2022-10-03T04:44:53.669Z,99.99
2022-10-03T04:45:53.765Z,99.99
2022-10-03T04:46:53.649Z,99.99
2022-10-03T04:47:53.609Z,99.99
2022-10-03T04:48:53.620Z,99.99
2022-10-03T04:49:53.599Z,99.99
2022-10-03T04:50:53.612Z,99.99
2022-10-03T04:51:55.641Z,99.99
2022-10-03T04:52:53.560Z,99.99
2022-10-03T04:53:54.620Z,99.99
2022-10-03T04:54:53.550Z,99.99
2022-10-03T04:55:53.558Z,99.99
2022-10-03T04:56:53.571Z,99.99
2022-10-03T04:57:53.497Z,99.99
2022-10-03T04:58:53.501Z,99.99
2022-10-03T04:59:53.512Z,99.99
2022-10-03T05:00:53.516Z,99.99
2022-10-03T05:01:53.493Z,99.99
2022-10-03T05:02:53.480Z,99.99
2022-10-03T05:03:53.452Z,99.99
2022-10-03T05:04:55.635Z,99.99
2022-10-03T05:05:53.432Z,99.99
2022-10-03T05:06:53.421Z,99.99
2022-10-03T05:07:53.392Z,99.99
2022-10-03T05:08:53.440Z,99.99
2022-10-03T05:09:53.383Z,99.99
2022-10-03T05:10:53.371Z,99.99
2022-10-03T05:11:53.363Z,99.99
2022-10-03T05:12:53.353Z,99.99
2022-10-03T05:13:53.344Z,99.99
2022-10-03T05:14:53.335Z,99.99
2022-10-03T05:15:53.324Z,99.99
2022-10-03T05:16:53.460Z,99.99
2022-10-03T05:17:53.294Z,99.99
2022-10-03T05:18:53.305Z,99.99
2022-10-03T05:19:53.266Z,99.99
2022-10-03T05:20:55.255Z,99.99
2022-10-03T05:21:53.275Z,99.99
2022-10-03T05:22:54.223Z,99.99
2022-10-03T05:23:53.245Z,99.99
2022-10-03T05:24:54.195Z,99.99
2022-10-03T05:25:53.216Z,99.99
2022-10-03T05:26:54.704Z,99.99
2022-10-03T05:27:53.251Z,99.99
2022-10-03T05:28:54.146Z,99.99
2022-10-03T05:29:53.176Z,99.99
2022-10-03T05:30:53.876Z,99.99
2022-10-03T05:31:53.197Z,99.99
2022-10-03T05:32:53.847Z,99.99
2022-10-03T05:33:53.138Z,99.99
2022-10-03T05:34:53.817Z,99.99
2022-10-03T05:35:53.128Z,99.99
2022-10-03T05:36:54.060Z,99.99
2022-10-03T05:37:53.087Z,99.99
2022-10-03T05:38:53.789Z,99.99
2022-10-03T05:39:53.073Z,99.99
2022-10-03T05:40:53.081Z,99.99
2022-10-03T05:42:17.925Z,99.99
2022-10-03T05:42:55.020Z,99.99
2022-10-03T05:43:53.067Z,99.99
2022-10-03T05:44:53.032Z,99.99
2022-10-03T05:45:53.066Z,99.99
2022-10-03T05:46:53.979Z,99.99
2022-10-03T05:47:53.001Z,99.99
2022-10-03T05:48:53.679Z,99.99
2022-10-03T05:49:52.951Z,99.99
2022-10-03T05:50:53.661Z,99.99
2022-10-03T05:51:52.991Z,99.99
2022-10-03T05:52:52.970Z,99.99
2022-10-03T05:53:52.921Z,99.99
2022-10-03T05:54:53.616Z,99.99
2022-10-03T05:55:52.899Z,99.99
2022-10-03T05:56:52.870Z,99.99
2022-10-03T05:57:52.882Z,99.99
2022-10-03T05:58:52.882Z,99.99
2022-10-03T05:59:53.109Z,99.99
2022-10-03T06:00:52.844Z,99.99
2022-10-03T06:01:53.572Z,99.99
2022-10-03T06:02:52.999Z,99.99
2022-10-03T06:03:53.993Z,99.99
2022-10-03T06:04:52.824Z,99.99
2022-10-03T06:05:53.814Z,99.99
2022-10-03T06:06:52.773Z,99.99
2022-10-03T06:07:52.760Z,99.99
2022-10-03T06:08:52.782Z,99.99
2022-10-03T06:09:52.733Z,99.99
2022-10-03T06:10:52.747Z,99.99
2022-10-03T06:11:52.733Z,99.99
2022-10-03T06:12:52.701Z,99.99
2022-10-03T06:13:52.705Z,99.99
2022-10-03T06:14:52.685Z,99.99
2022-10-03T06:15:52.716Z,99.99
2022-10-03T06:16:52.775Z,99.99
2022-10-03T06:17:52.666Z,99.99
2022-10-03T06:18:52.643Z,99.99
2022-10-03T06:19:52.626Z,99.99
2022-10-03T06:20:52.633Z,99.99
2022-10-03T06:21:52.637Z,99.99
2022-10-03T06:22:52.596Z,99.99
2022-10-03T06:23:52.594Z,99.99
2022-10-03T06:24:52.586Z,99.99
2022-10-03T06:25:52.560Z,99.99
2022-10-03T06:26:52.585Z,99.99
2022-10-03T06:27:52.589Z,99.99
2022-10-03T06:28:52.548Z,99.97
2022-10-03T06:29:52.558Z,99.82
2022-10-03T06:30:52.574Z,99.62
2022-10-03T06:31:52.508Z,99.62
2022-10-03T06:32:52.487Z,99.62
2022-10-03T06:33:52.476Z,99.62
2022-10-03T06:34:52.510Z,99.72
2022-10-03T06:35:52.448Z,99.62
2022-10-03T06:36:52.459Z,99.62
2022-10-03T06:37:52.440Z,99.52
2022-10-03T06:38:52.441Z,99.41
2022-10-03T06:39:52.409Z,99.31
2022-10-03T06:40:52.422Z,98.96
2022-10-03T06:41:52.390Z,99.01
2022-10-03T06:42:52.403Z,98.91
2022-10-03T06:43:52.367Z,98.55
2022-10-03T06:44:52.379Z,98.45
2022-10-03T06:45:52.393Z,98.55
2022-10-03T06:46:52.358Z,98.55
2022-10-03T06:47:52.321Z,98.35
2022-10-03T06:48:52.332Z,97.84
2022-10-03T06:49:52.319Z,97.44
2022-10-03T06:50:52.291Z,97.44
2022-10-03T06:51:52.292Z,97.53
2022-10-03T06:52:52.277Z,97.64
2022-10-03T06:53:52.272Z,97.74
2022-10-03T06:54:52.272Z,97.84
2022-10-03T06:55:52.737Z,97.94
2022-10-03T06:56:52.237Z,97.74
2022-10-03T06:57:52.232Z,97.23
2022-10-03T06:58:52.253Z,96.92
2022-10-03T06:59:52.210Z,96.62
2022-10-03T07:00:52.196Z,96.42
2022-10-03T07:01:52.203Z,96.42
2022-10-03T07:02:52.204Z,96.31
2022-10-03T07:03:52.162Z,96.42
2022-10-03T07:04:52.165Z,96.52
2022-10-03T07:05:52.157Z,96.42
2022-10-03T07:06:52.142Z,96.31
2022-10-03T07:07:52.119Z,96.42
2022-10-03T07:08:52.102Z,96.42
2022-10-03T07:09:52.106Z,96.42
2022-10-03T07:10:52.117Z,96.31
2022-10-03T07:11:52.065Z,96.31
2022-10-03T07:12:52.080Z,96.22
2022-10-03T07:13:52.068Z,96.22
2022-10-03T07:14:52.036Z,96.22
2022-10-03T07:16:14.177Z,96.11
2022-10-03T07:16:53.062Z,95.91
2022-10-03T07:17:52.021Z,95.86
2022-10-03T07:18:52.037Z,95.56
2022-10-03T07:19:51.977Z,95.46
2022-10-03T07:20:51.994Z,95.66
2022-10-03T07:21:51.986Z,95.46
2022-10-03T07:22:51.969Z,95.56
2022-10-03T07:23:51.960Z,95.56
2022-10-03T07:24:51.930Z,95.51
2022-10-03T07:25:51.909Z,95.41
2022-10-03T07:26:51.943Z,94.90
2022-10-03T07:27:52.106Z,94.70
2022-10-03T07:28:51.898Z,94.90
2022-10-03T07:29:51.868Z,94.60
2022-10-03T07:30:51.903Z,94.40
2022-10-03T07:31:51.878Z,94.40
2022-10-03T07:32:51.877Z,94.20
2022-10-03T07:33:51.841Z,93.89
2022-10-03T07:34:51.821Z,93.68
2022-10-03T07:35:51.807Z,93.48
2022-10-03T07:36:51.800Z,92.87
2022-10-03T07:37:51.812Z,92.67
2022-10-03T07:38:51.771Z,93.07
2022-10-03T07:39:51.771Z,93.18
2022-10-03T07:40:51.772Z,92.97
2022-10-03T07:41:51.754Z,92.93
2022-10-03T07:42:51.762Z,93.13
2022-10-03T07:43:51.719Z,93.03
2022-10-03T07:44:51.734Z,92.93
2022-10-03T07:45:51.713Z,92.63
2022-10-03T07:46:51.694Z,91.71
2022-10-03T07:47:51.701Z,91.61
2022-10-03T07:48:51.677Z,91.00
2022-10-03T07:49:51.658Z,90.80
2022-10-03T07:50:51.930Z,91.20
2022-10-03T07:51:51.642Z,91.00
2022-10-03T07:52:51.630Z,91.36
2022-10-03T07:53:51.623Z,91.16
2022-10-03T07:54:51.633Z,90.66
2022-10-03T07:55:51.595Z,91.06
2022-10-03T07:56:51.617Z,90.86
2022-10-03T07:57:51.575Z,91.06
2022-10-03T07:58:51.565Z,90.55
2022-10-03T07:59:51.545Z,90.55
2022-10-03T08:00:51.606Z,90.86
2022-10-03T08:01:51.548Z,91.06
2022-10-03T08:02:51.647Z,91.16
2022-10-03T08:03:51.525Z,91.16
2022-10-03T08:04:51.509Z,91.16
2022-10-03T08:05:51.766Z,91.67
2022-10-03T08:06:51.478Z,91.16
2022-10-03T08:07:51.461Z,91.06
2022-10-03T08:08:51.467Z,91.47
2022-10-03T08:09:51.470Z,91.36
2022-10-03T08:10:51.447Z,91.36
2022-10-03T08:11:51.428Z,91.67
2022-10-03T08:12:51.430Z,91.87
2022-10-03T08:13:51.436Z,91.87
2022-10-03T08:14:51.408Z,91.32
2022-10-03T08:15:51.438Z,91.02
2022-10-03T08:16:51.367Z,91.12
2022-10-03T08:17:51.349Z,91.02
2022-10-03T08:18:51.359Z,90.92
2022-10-03T08:19:51.370Z,90.81
2022-10-03T08:20:51.336Z,90.20
2022-10-03T08:21:51.350Z,89.59
2022-10-03T08:22:51.320Z,88.78
2022-10-03T08:23:51.309Z,88.28
2022-10-03T08:24:51.284Z,88.18
2022-10-03T08:25:51.270Z,87.87
2022-10-03T08:26:51.291Z,87.46
2022-10-03T08:27:51.332Z,87.37
2022-10-03T08:28:51.252Z,86.65
2022-10-03T08:29:51.242Z,86.05
2022-10-03T08:30:51.264Z,85.94
2022-10-03T08:31:51.220Z,85.64
2022-10-03T08:32:51.211Z,85.84
2022-10-03T08:33:51.199Z,85.70
2022-10-03T08:34:51.194Z,85.19
2022-10-03T08:35:51.204Z,85.44
2022-10-03T08:36:51.152Z,85.90
2022-10-03T08:37:51.174Z,86.00
2022-10-03T08:38:51.133Z,85.84
2022-10-03T08:39:51.133Z,86.25
2022-10-03T08:40:51.103Z,86.96
2022-10-03T08:41:51.125Z,87.87
2022-10-03T08:42:51.083Z,87.37
2022-10-03T08:43:51.082Z,87.37
2022-10-03T08:44:51.073Z,87.26
2022-10-03T08:45:51.067Z,87.16
2022-10-03T08:46:51.074Z,85.84
2022-10-03T08:47:51.045Z,85.74
2022-10-03T08:48:51.025Z,86.35
2022-10-03T08:49:51.035Z,86.76
2022-10-03T08:50:51.027Z,86.35
2022-10-03T08:51:51.015Z,85.74
2022-10-03T08:52:50.994Z,86.25
2022-10-03T08:53:51.107Z,87.12
2022-10-03T08:54:50.989Z,87.32
2022-10-03T08:55:50.967Z,87.73
2022-10-03T08:56:50.937Z,86.91
2022-10-03T08:57:50.948Z,87.22
2022-10-03T08:58:50.927Z,87.12
2022-10-03T08:59:50.927Z,86.91
2022-10-03T09:00:50.895Z,86.91
2022-10-03T09:01:51.087Z,87.32
2022-10-03T09:03:06.524Z,86.91
2022-10-03T09:03:51.887Z,86.51
2022-10-03T09:04:50.878Z,86.71
2022-10-03T09:05:50.943Z,86.82
2022-10-03T09:07:15.445Z,87.02
2022-10-03T09:07:51.819Z,87.32
2022-10-03T09:08:50.810Z,87.32
2022-10-03T09:09:50.807Z,87.22
2022-10-03T09:10:50.780Z,86.41
2022-10-03T09:11:50.810Z,87.02
2022-10-03T09:12:50.780Z,87.32
2022-10-03T09:13:50.759Z,86.82
2022-10-03T09:14:50.752Z,86.88
2022-10-03T09:15:50.815Z,86.77
2022-10-03T09:16:50.732Z,86.98
2022-10-03T09:17:50.756Z,86.88
2022-10-03T09:18:50.701Z,85.86
2022-10-03T09:19:50.723Z,85.42
2022-10-03T09:20:50.691Z,85.31
2022-10-03T09:21:50.672Z,84.41
2022-10-03T09:22:50.673Z,83.96
2022-10-03T09:23:50.673Z,84.16
2022-10-03T09:24:50.676Z,84.67
2022-10-03T09:25:50.631Z,83.65
2022-10-03T09:26:50.674Z,83.41
2022-10-03T09:27:50.630Z,83.31
2022-10-03T09:28:50.603Z,83.72
2022-10-03T09:29:50.609Z,82.97
2022-10-03T09:30:50.603Z,82.97
2022-10-03T09:31:50.617Z,82.46
2022-10-03T09:32:50.567Z,82.32
2022-10-03T09:33:50.554Z,81.21
2022-10-03T09:34:50.555Z,81.92
2022-10-03T09:35:50.578Z,81.51
2022-10-03T09:36:50.505Z,81.01
2022-10-03T09:37:50.516Z,80.80
2022-10-03T09:38:50.506Z,79.19
2022-10-03T09:39:50.485Z,78.95
2022-10-03T09:40:53.472Z,78.95
2022-10-03T09:41:50.468Z,79.46
2022-10-03T09:42:50.476Z,79.15
2022-10-03T09:43:50.448Z,79.25
2022-10-03T09:44:50.437Z,79.66
2022-10-03T09:45:50.415Z,80.16
2022-10-03T09:46:50.470Z,79.86
2022-10-03T09:47:50.408Z,79.86
2022-10-03T09:48:50.389Z,80.16
2022-10-03T09:49:50.376Z,78.55
2022-10-03T09:50:50.369Z,78.04
2022-10-03T09:51:50.397Z,78.04
2022-10-03T09:52:50.357Z,77.43
2022-10-03T09:53:50.351Z,77.23
2022-10-03T09:54:50.319Z,77.94
2022-10-03T09:55:50.340Z,78.04
2022-10-03T09:56:50.310Z,77.73
2022-10-03T09:57:50.322Z,77.73
2022-10-03T09:58:50.282Z,79.05
2022-10-03T09:59:50.268Z,77.43
2022-10-03T10:00:50.379Z,77.29
2022-10-03T10:01:50.270Z,77.70
2022-10-03T10:02:50.275Z,76.75
2022-10-03T10:03:50.297Z,77.26
2022-10-03T10:04:55.309Z,76.15
2022-10-03T10:05:51.221Z,76.65
2022-10-03T10:06:50.192Z,75.34
2022-10-03T10:07:50.185Z,74.97
2022-10-03T10:08:50.172Z,75.98
2022-10-03T10:09:50.192Z,76.18
2022-10-03T10:10:50.173Z,75.57
2022-10-03T10:11:50.144Z,74.37
2022-10-03T10:12:50.135Z,74.46
2022-10-03T10:14:07.376Z,75.48
2022-10-03T10:14:51.156Z,75.68
2022-10-03T10:15:50.165Z,75.48
2022-10-03T10:16:50.500Z,75.57
2022-10-03T10:17:50.075Z,76.04
2022-10-03T10:18:50.056Z,76.95
2022-10-03T10:19:50.066Z,76.95
2022-10-03T10:20:50.054Z,77.76
2022-10-03T10:21:50.056Z,77.36
2022-10-03T10:22:50.049Z,76.86
2022-10-03T10:23:50.037Z,76.82
2022-10-03T10:24:50.010Z,77.62
2022-10-03T10:25:50.008Z,77.62
2022-10-03T10:26:49.997Z,77.93
2022-10-03T10:27:50.032Z,77.69
2022-10-03T10:28:49.970Z,77.55
2022-10-03T10:29:49.961Z,76.54
2022-10-03T10:30:49.937Z,76.54
2022-10-03T10:31:49.968Z,75.90
2022-10-03T10:32:49.928Z,75.60
2022-10-03T10:33:49.929Z,75.20
2022-10-03T10:34:49.912Z,75.06
2022-10-03T10:35:49.890Z,74.76
2022-10-03T10:36:49.868Z,75.06
2022-10-03T10:37:49.861Z,74.76
2022-10-03T10:38:49.860Z,74.46
2022-10-03T10:39:49.871Z,74.19
2022-10-03T10:40:49.843Z,74.39
2022-10-03T10:41:49.821Z,74.79
2022-10-03T10:42:49.812Z,74.32
2022-10-03T10:43:49.812Z,74.12
2022-10-03T10:44:49.851Z,75.03
2022-10-03T10:45:49.782Z,75.13
2022-10-03T10:46:49.815Z,75.23
2022-10-03T10:47:49.761Z,75.03
2022-10-03T10:48:49.744Z,75.63
2022-10-03T10:49:49.902Z,75.74
2022-10-03T10:50:50.241Z,75.84
2022-10-03T10:51:49.824Z,75.43
2022-10-03T10:52:49.713Z,75.43
2022-10-03T10:53:49.705Z,75.63
2022-10-03T10:54:49.715Z,75.54
2022-10-03T10:55:49.686Z,75.90
2022-10-03T10:56:49.654Z,75.30
2022-10-03T10:57:51.147Z,74.90
2022-10-03T10:58:50.286Z,74.55
2022-10-03T10:59:49.626Z,73.95
2022-10-03T11:00:49.882Z,74.05
2022-10-03T11:01:49.627Z,73.85
2022-10-03T11:02:49.596Z,73.55
2022-10-03T11:03:49.598Z,73.95
2022-10-03T11:04:49.605Z,74.05
2022-10-03T11:05:49.560Z,73.95
2022-10-03T11:06:49.539Z,72.94
2022-10-03T11:07:53.857Z,73.65
2022-10-03T11:08:49.548Z,74.05
2022-10-03T11:09:49.518Z,74.15
2022-10-03T11:10:49.507Z,73.61
2022-10-03T11:11:49.537Z,72.77
2022-10-03T11:12:49.499Z,71.97
2022-10-03T11:13:49.480Z,70.76
2022-10-03T11:14:49.470Z,70.86
2022-10-03T11:15:49.556Z,70.36
2022-10-03T11:16:49.473Z,70.03
2022-10-03T11:17:49.452Z,69.32
2022-10-03T11:18:49.419Z,68.31
2022-10-03T11:19:49.492Z,65.09
2022-10-03T11:20:49.411Z,65.50
2022-10-03T11:21:49.395Z,65.62
2022-10-03T11:22:49.394Z,66.03
2022-10-03T11:23:49.392Z,64.62
2022-10-03T11:24:49.362Z,64.92
2022-10-03T11:25:49.372Z,65.93
2022-10-03T11:26:49.342Z,66.63
2022-10-03T11:27:49.422Z,66.30
2022-10-03T11:28:49.387Z,65.09
2022-10-03T11:29:49.305Z,65.06
2022-10-03T11:30:49.294Z,66.07
2022-10-03T11:31:49.414Z,65.13
2022-10-03T11:32:49.275Z,64.20
2022-10-03T11:33:49.285Z,63.76
2022-10-03T11:34:49.266Z,61.93
2022-10-03T11:35:49.263Z,61.19
2022-10-03T11:36:49.255Z,61.60
2022-10-03T11:37:49.237Z,61.47
2022-10-03T11:38:49.203Z,61.87
2022-10-03T11:39:49.197Z,61.97
2022-10-03T11:40:49.225Z,61.36
2022-10-03T11:41:49.219Z,61.24
2022-10-03T11:42:49.158Z,61.04
2022-10-03T11:43:49.171Z,60.24
2022-10-03T11:44:49.145Z,61.14
2022-10-03T11:45:49.246Z,61.27
2022-10-03T11:46:49.137Z,61.14
2022-10-03T11:47:49.130Z,60.53
2022-10-03T11:48:49.131Z,61.24
2022-10-03T11:49:49.090Z,60.61
2022-10-03T11:50:49.100Z,59.03
2022-10-03T11:51:53.441Z,59.31
2022-10-03T11:52:49.061Z,59.48
2022-10-03T11:53:49.322Z,57.89
2022-10-03T11:54:49.049Z,57.46
2022-10-03T11:55:49.032Z,57.46
2022-10-03T11:56:49.027Z,56.04
2022-10-03T11:57:49.062Z,53.36
2022-10-03T11:58:49.002Z,50.65
2022-10-03T11:59:49.014Z,48.53
2022-10-03T12:00:48.971Z,46.73
2022-10-03T12:01:51.512Z,44.84
2022-10-03T12:02:49.112Z,43.36
2022-10-03T12:03:49.009Z,41.68
2022-10-03T12:04:48.993Z,39.74
2022-10-03T12:05:48.935Z,36.96
2022-10-03T12:06:48.914Z,36.23
2022-10-03T12:07:48.913Z,36.21
2022-10-03T12:08:48.918Z,35.12
2022-10-03T12:09:48.885Z,33.62
2022-10-03T12:10:48.879Z,32.89
2022-10-03T12:11:48.878Z,32.28
2022-10-03T12:12:48.848Z,34.00
2022-10-03T12:13:48.848Z,34.24
2022-10-03T12:14:48.849Z,34.80
2022-10-03T12:15:48.853Z,35.96
2022-10-03T12:16:48.867Z,38.19
2022-10-03T12:17:48.817Z,38.15
2022-10-03T12:18:48.804Z,39.94
2022-10-03T12:19:48.793Z,39.64
2022-10-03T12:20:48.799Z,39.84
2022-10-03T12:21:48.764Z,40.35
2022-10-03T12:22:48.743Z,39.86
2022-10-03T12:23:48.753Z,40.66
2022-10-03T12:24:48.775Z,41.63
2022-10-03T12:25:48.735Z,40.56
2022-10-03T12:26:48.714Z,40.94
2022-10-03T12:27:48.734Z,42.19
2022-10-03T12:28:48.685Z,43.83
2022-10-03T12:29:48.696Z,45.48
2022-10-03T12:30:48.676Z,45.82
2022-10-03T12:31:48.849Z,46.73
2022-10-03T12:32:48.677Z,46.73
2022-10-03T12:33:48.648Z,46.12
2022-10-03T12:34:48.648Z,45.41
2022-10-03T12:35:48.618Z,41.99
2022-10-03T12:36:48.601Z,39.68
2022-10-03T12:37:48.588Z,36.45
2022-10-03T12:38:51.046Z,36.51
2022-10-03T12:39:48.569Z,35.53
2022-10-03T12:40:56.128Z,35.61
2022-10-03T12:41:48.578Z,35.60
2022-10-03T12:42:48.546Z,35.07
2022-10-03T12:43:48.664Z,33.48
2022-10-03T12:44:48.524Z,34.26
2022-10-03T12:45:48.552Z,34.03
2022-10-03T12:46:48.519Z,33.14
2022-10-03T12:47:55.813Z,32.42
2022-10-03T12:48:49.491Z,31.88
2022-10-03T12:49:48.482Z,30.87
2022-10-03T12:50:48.472Z,30.35
2022-10-03T12:51:48.473Z,30.65
2022-10-03T12:52:48.589Z,30.57